sensor_id;sensor_type;location;lat;lon;timestamp;temperature;humidity
21255;DHT22;10785;50.674;17.954;2023-05-10T00:00:17;8.90;94.10
21255;DHT22;10785;50.674;17.954;2023-05-10T00:02:46;8.90;95.20
21255;DHT22;10785;50.674;17.954;2023-05-10T00:05:15;8.90;95.10
21255;DHT22;10785;50.674;17.954;2023-05-10T00:07:45;8.90;95.10
21255;DHT22;10785;50.674;17.954;2023-05-10T00:10:14;8.90;95.60
21255;DHT22;10785;50.674;17.954;2023-05-10T00:12:43;8.80;95.20
21255;DHT22;10785;50.674;17.954;2023-05-10T00:15:11;8.90;96.20
21255;DHT22;10785;50.674;17.954;2023-05-10T00:17:40;8.80;96.10
21255;DHT22;10785;50.674;17.954;2023-05-10T00:20:10;8.80;96.30
21255;DHT22;10785;50.674;17.954;2023-05-10T00:22:39;8.80;96.40
21255;DHT22;10785;50.674;17.954;2023-05-10T00:25:09;8.80;96.60
21255;DHT22;10785;50.674;17.954;2023-05-10T00:27:38;8.70;97.60
21255;DHT22;10785;50.674;17.954;2023-05-10T00:30:08;8.70;98.10
21255;DHT22;10785;50.674;17.954;2023-05-10T00:32:36;8.70;98.40
21255;DHT22;10785;50.674;17.954;2023-05-10T00:35:06;8.60;99.40
21255;DHT22;10785;50.674;17.954;2023-05-10T00:37:34;8.60;99.80
21255;DHT22;10785;50.674;17.954;2023-05-10T00:40:04;8.60;99.80
21255;DHT22;10785;50.674;17.954;2023-05-10T00:42:34;8.60;99.90
21255;DHT22;10785;50.674;17.954;2023-05-10T00:45:04;8.50;99.90
21255;DHT22;10785;50.674;17.954;2023-05-10T00:47:33;8.50;99.90
21255;DHT22;10785;50.674;17.954;2023-05-10T00:50:02;8.50;99.90
21255;DHT22;10785;50.674;17.954;2023-05-10T00:52:32;8.50;99.90
21255;DHT22;10785;50.674;17.954;2023-05-10T00:55:01;8.40;99.90
21255;DHT22;10785;50.674;17.954;2023-05-10T00:57:31;8.40;99.90
21255;DHT22;10785;50.674;17.954;2023-05-10T01:00:02;8.30;99.90
21255;DHT22;10785;50.674;17.954;2023-05-10T01:02:33;8.30;99.90
21255;DHT22;10785;50.674;17.954;2023-05-10T01:05:03;8.30;99.90
21255;DHT22;10785;50.674;17.954;2023-05-10T01:07:32;8.30;99.90
21255;DHT22;10785;50.674;17.954;2023-05-10T01:10:01;8.30;99.90
21255;DHT22;10785;50.674;17.954;2023-05-10T01:12:30;8.30;99.90
21255;DHT22;10785;50.674;17.954;2023-05-10T01:15:01;8.20;99.90
21255;DHT22;10785;50.674;17.954;2023-05-10T01:17:32;8.20;99.90
21255;DHT22;10785;50.674;17.954;2023-05-10T01:20:01;8.20;99.90
21255;DHT22;10785;50.674;17.954;2023-05-10T01:22:57;8.10;99.90
21255;DHT22;10785;50.674;17.954;2023-05-10T02:56:12;7.40;99.90
21255;DHT22;10785;50.674;17.954;2023-05-10T02:58:42;7.40;99.90
21255;DHT22;10785;50.674;17.954;2023-05-10T03:01:11;7.40;99.90
21255;DHT22;10785;50.674;17.954;2023-05-10T03:03:40;7.40;99.90
21255;DHT22;10785;50.674;17.954;2023-05-10T03:06:08;7.40;99.90
21255;DHT22;10785;50.674;17.954;2023-05-10T03:08:37;7.40;99.90
21255;DHT22;10785;50.674;17.954;2023-05-10T03:11:28;7.40;99.90
21255;DHT22;10785;50.674;17.954;2023-05-10T03:14:10;7.40;99.90
21255;DHT22;10785;50.674;17.954;2023-05-10T03:16:44;7.40;99.90
21255;DHT22;10785;50.674;17.954;2023-05-10T03:19:19;7.40;99.90
21255;DHT22;10785;50.674;17.954;2023-05-10T03:21:53;7.40;99.90
21255;DHT22;10785;50.674;17.954;2023-05-10T03:24:23;7.40;99.90
21255;DHT22;10785;50.674;17.954;2023-05-10T03:26:56;7.50;99.90
21255;DHT22;10785;50.674;17.954;2023-05-10T03:29:30;7.50;99.90
21255;DHT22;10785;50.674;17.954;2023-05-10T03:31:59;7.60;99.90
21255;DHT22;10785;50.674;17.954;2023-05-10T03:34:30;7.90;99.90
21255;DHT22;10785;50.674;17.954;2023-05-10T03:36:59;8.50;99.90
21255;DHT22;10785;50.674;17.954;2023-05-10T03:39:30;9.20;99.90
21255;DHT22;10785;50.674;17.954;2023-05-10T03:42:02;9.70;99.90
21255;DHT22;10785;50.674;17.954;2023-05-10T03:44:31;10.20;99.90
21255;DHT22;10785;50.674;17.954;2023-05-10T03:47:00;10.70;99.90
21255;DHT22;10785;50.674;17.954;2023-05-10T03:49:29;11.20;99.90
21255;DHT22;10785;50.674;17.954;2023-05-10T03:51:58;11.40;99.90
21255;DHT22;10785;50.674;17.954;2023-05-10T03:54:27;11.90;99.90
21255;DHT22;10785;50.674;17.954;2023-05-10T03:56:56;12.30;99.90
21255;DHT22;10785;50.674;17.954;2023-05-10T03:59:26;12.60;99.90
21255;DHT22;10785;50.674;17.954;2023-05-10T04:01:55;13.30;99.90
21255;DHT22;10785;50.674;17.954;2023-05-10T04:04:23;13.50;99.90
21255;DHT22;10785;50.674;17.954;2023-05-10T04:06:52;13.70;99.90
21255;DHT22;10785;50.674;17.954;2023-05-10T04:09:21;13.50;99.90
21255;DHT22;10785;50.674;17.954;2023-05-10T04:11:49;14.40;99.90
21255;DHT22;10785;50.674;17.954;2023-05-10T04:14:18;14.70;99.90
21255;DHT22;10785;50.674;17.954;2023-05-10T04:16:48;14.90;99.90
21255;DHT22;10785;50.674;17.954;2023-05-10T04:19:17;14.80;99.90
21255;DHT22;10785;50.674;17.954;2023-05-10T04:21:45;15.20;99.90
21255;DHT22;10785;50.674;17.954;2023-05-10T04:24:14;15.70;99.90
21255;DHT22;10785;50.674;17.954;2023-05-10T04:26:43;16.00;99.90
21255;DHT22;10785;50.674;17.954;2023-05-10T04:29:11;16.00;99.90
21255;DHT22;10785;50.674;17.954;2023-05-10T04:31:40;16.10;99.90
21255;DHT22;10785;50.674;17.954;2023-05-10T04:34:10;16.30;99.90
21255;DHT22;10785;50.674;17.954;2023-05-10T04:36:38;16.30;99.90
21255;DHT22;10785;50.674;17.954;2023-05-10T04:39:07;16.40;99.90
21255;DHT22;10785;50.674;17.954;2023-05-10T04:41:38;16.70;99.90
21255;DHT22;10785;50.674;17.954;2023-05-10T04:44:06;17.20;99.90
21255;DHT22;10785;50.674;17.954;2023-05-10T04:46:35;17.70;99.90
21255;DHT22;10785;50.674;17.954;2023-05-10T04:49:04;17.90;99.90
21255;DHT22;10785;50.674;17.954;2023-05-10T04:51:34;18.00;99.90
21255;DHT22;10785;50.674;17.954;2023-05-10T04:54:02;17.90;99.90
21255;DHT22;10785;50.674;17.954;2023-05-10T04:56:33;18.20;99.90
21255;DHT22;10785;50.674;17.954;2023-05-10T04:59:03;18.00;99.90
21255;DHT22;10785;50.674;17.954;2023-05-10T05:01:31;18.30;99.90
21255;DHT22;10785;50.674;17.954;2023-05-10T05:04:00;18.50;99.90
21255;DHT22;10785;50.674;17.954;2023-05-10T05:06:29;17.90;99.90
21255;DHT22;10785;50.674;17.954;2023-05-10T05:08:59;17.90;99.90
21255;DHT22;10785;50.674;17.954;2023-05-10T05:11:28;18.80;99.90
21255;DHT22;10785;50.674;17.954;2023-05-10T05:13:56;18.70;99.90
21255;DHT22;10785;50.674;17.954;2023-05-10T05:16:26;19.00;99.90
21255;DHT22;10785;50.674;17.954;2023-05-10T05:18:55;19.30;99.90
21255;DHT22;10785;50.674;17.954;2023-05-10T05:21:23;19.60;99.90
21255;DHT22;10785;50.674;17.954;2023-05-10T05:23:54;19.80;99.90
21255;DHT22;10785;50.674;17.954;2023-05-10T05:26:23;20.20;99.90
21255;DHT22;10785;50.674;17.954;2023-05-10T05:28:52;20.00;99.90
21255;DHT22;10785;50.674;17.954;2023-05-10T05:31:21;20.20;99.90
21255;DHT22;10785;50.674;17.954;2023-05-10T05:33:50;20.70;99.90
21255;DHT22;10785;50.674;17.954;2023-05-10T05:36:19;20.50;1.00
21255;DHT22;10785;50.674;17.954;2023-05-10T05:38:48;21.00;99.90
21255;DHT22;10785;50.674;17.954;2023-05-10T05:41:16;21.20;99.90
21255;DHT22;10785;50.674;17.954;2023-05-10T05:43:46;21.10;99.90
21255;DHT22;10785;50.674;17.954;2023-05-10T05:46:15;21.10;99.90
21255;DHT22;10785;50.674;17.954;2023-05-10T05:48:43;20.90;99.90
21255;DHT22;10785;50.674;17.954;2023-05-10T05:51:12;21.60;99.90
21255;DHT22;10785;50.674;17.954;2023-05-10T05:53:41;21.90;99.90
21255;DHT22;10785;50.674;17.954;2023-05-10T05:56:09;22.20;99.90
21255;DHT22;10785;50.674;17.954;2023-05-10T05:58:39;22.00;99.90
21255;DHT22;10785;50.674;17.954;2023-05-10T06:01:09;21.80;99.90
21255;DHT22;10785;50.674;17.954;2023-05-10T06:03:37;22.00;99.90
21255;DHT22;10785;50.674;17.954;2023-05-10T06:06:06;22.40;99.90
21255;DHT22;10785;50.674;17.954;2023-05-10T06:08:35;21.50;99.90
21255;DHT22;10785;50.674;17.954;2023-05-10T06:11:03;21.90;99.90
21255;DHT22;10785;50.674;17.954;2023-05-10T06:13:32;22.00;99.90
21255;DHT22;10785;50.674;17.954;2023-05-10T06:16:03;22.20;99.90
21255;DHT22;10785;50.674;17.954;2023-05-10T06:18:33;22.50;99.90
21255;DHT22;10785;50.674;17.954;2023-05-10T06:21:01;22.30;99.90
21255;DHT22;10785;50.674;17.954;2023-05-10T06:23:30;22.60;99.90
21255;DHT22;10785;50.674;17.954;2023-05-10T06:25:59;23.20;99.90
21255;DHT22;10785;50.674;17.954;2023-05-10T06:28:28;23.30;99.90
21255;DHT22;10785;50.674;17.954;2023-05-10T06:30:58;22.90;99.90
21255;DHT22;10785;50.674;17.954;2023-05-10T06:33:27;23.10;99.90
21255;DHT22;10785;50.674;17.954;2023-05-10T06:35:57;23.30;99.90
21255;DHT22;10785;50.674;17.954;2023-05-10T06:38:26;23.60;99.90
21255;DHT22;10785;50.674;17.954;2023-05-10T06:40:54;23.40;99.90
21255;DHT22;10785;50.674;17.954;2023-05-10T06:43:23;23.20;99.90
21255;DHT22;10785;50.674;17.954;2023-05-10T06:45:52;23.30;99.90
21255;DHT22;10785;50.674;17.954;2023-05-10T06:48:20;23.40;99.90
21255;DHT22;10785;50.674;17.954;2023-05-10T06:50:49;23.20;99.90
21255;DHT22;10785;50.674;17.954;2023-05-10T06:53:19;23.10;99.90
21255;DHT22;10785;50.674;17.954;2023-05-10T06:55:49;23.30;99.90
21255;DHT22;10785;50.674;17.954;2023-05-10T06:58:18;23.30;99.90
21255;DHT22;10785;50.674;17.954;2023-05-10T07:00:46;23.50;99.90
21255;DHT22;10785;50.674;17.954;2023-05-10T07:03:15;23.00;99.90
21255;DHT22;10785;50.674;17.954;2023-05-10T07:05:44;23.00;99.70
21255;DHT22;10785;50.674;17.954;2023-05-10T07:08:13;22.70;98.20
21255;DHT22;10785;50.674;17.954;2023-05-10T07:10:43;22.80;98.00
21255;DHT22;10785;50.674;17.954;2023-05-10T07:13:11;22.30;95.70
21255;DHT22;10785;50.674;17.954;2023-05-10T07:15:40;22.60;95.90
21255;DHT22;10785;50.674;17.954;2023-05-10T07:18:09;23.40;98.80
21255;DHT22;10785;50.674;17.954;2023-05-10T07:20:38;23.30;98.10
21255;DHT22;10785;50.674;17.954;2023-05-10T07:23:06;23.00;96.30
21255;DHT22;10785;50.674;17.954;2023-05-10T07:25:35;22.40;93.30
21255;DHT22;10785;50.674;17.954;2023-05-10T07:28:06;21.80;90.50
21255;DHT22;10785;50.674;17.954;2023-05-10T07:30:34;21.50;87.40
21255;DHT22;10785;50.674;17.954;2023-05-10T07:33:03;21.10;82.90
21255;DHT22;10785;50.674;17.954;2023-05-10T07:35:32;20.70;79.10
21255;DHT22;10785;50.674;17.954;2023-05-10T07:38:00;20.40;74.80
21255;DHT22;10785;50.674;17.954;2023-05-10T07:40:29;20.10;71.20
21255;DHT22;10785;50.674;17.954;2023-05-10T07:42:58;19.90;69.30
21255;DHT22;10785;50.674;17.954;2023-05-10T07:45:28;19.80;67.70
21255;DHT22;10785;50.674;17.954;2023-05-10T07:47:57;19.60;65.60
21255;DHT22;10785;50.674;17.954;2023-05-10T07:50:26;19.70;66.20
21255;DHT22;10785;50.674;17.954;2023-05-10T07:52:54;19.60;65.70
21255;DHT22;10785;50.674;17.954;2023-05-10T07:55:23;19.50;64.00
21255;DHT22;10785;50.674;17.954;2023-05-10T07:57:52;19.40;62.50
21255;DHT22;10785;50.674;17.954;2023-05-10T08:00:20;19.20;60.40
21255;DHT22;10785;50.674;17.954;2023-05-10T08:02:50;19.20;59.80
21255;DHT22;10785;50.674;17.954;2023-05-10T08:05:23;19.40;61.50
21255;DHT22;10785;50.674;17.954;2023-05-10T08:07:52;19.00;58.90
21255;DHT22;10785;50.674;17.954;2023-05-10T08:10:20;19.00;58.80
21255;DHT22;10785;50.674;17.954;2023-05-10T08:12:49;19.10;59.00
21255;DHT22;10785;50.674;17.954;2023-05-10T08:15:18;19.20;60.10
21255;DHT22;10785;50.674;17.954;2023-05-10T08:17:46;19.40;61.30
21255;DHT22;10785;50.674;17.954;2023-05-10T08:20:16;19.60;64.00
21255;DHT22;10785;50.674;17.954;2023-05-10T08:22:46;19.60;61.90
21255;DHT22;10785;50.674;17.954;2023-05-10T08:25:17;19.50;62.00
21255;DHT22;10785;50.674;17.954;2023-05-10T08:27:46;19.40;61.10
21255;DHT22;10785;50.674;17.954;2023-05-10T08:30:15;19.10;57.90
21255;DHT22;10785;50.674;17.954;2023-05-10T08:32:43;19.10;57.60
21255;DHT22;10785;50.674;17.954;2023-05-10T08:35:12;19.00;56.90
21255;DHT22;10785;50.674;17.954;2023-05-10T08:37:43;18.90;56.20
21255;DHT22;10785;50.674;17.954;2023-05-10T08:40:13;19.00;55.80
21255;DHT22;10785;50.674;17.954;2023-05-10T08:42:45;18.90;56.10
21255;DHT22;10785;50.674;17.954;2023-05-10T08:45:16;18.90;55.50
21255;DHT22;10785;50.674;17.954;2023-05-10T08:47:46;18.90;55.40
21255;DHT22;10785;50.674;17.954;2023-05-10T08:50:17;18.70;53.40
21255;DHT22;10785;50.674;17.954;2023-05-10T08:52:48;18.90;54.90
21255;DHT22;10785;50.674;17.954;2023-05-10T08:55:18;18.90;55.20
21255;DHT22;10785;50.674;17.954;2023-05-10T08:57:47;19.10;56.30
21255;DHT22;10785;50.674;17.954;2023-05-10T09:00:17;19.20;56.30
21255;DHT22;10785;50.674;17.954;2023-05-10T09:02:48;18.80;53.80
21255;DHT22;10785;50.674;17.954;2023-05-10T09:05:18;19.00;54.80
21255;DHT22;10785;50.674;17.954;2023-05-10T09:07:48;18.90;54.10
21255;DHT22;10785;50.674;17.954;2023-05-10T09:10:17;18.90;53.20
21255;DHT22;10785;50.674;17.954;2023-05-10T09:12:46;18.70;52.40
21255;DHT22;10785;50.674;17.954;2023-05-10T09:15:16;18.90;54.00
21255;DHT22;10785;50.674;17.954;2023-05-10T09:17:47;18.70;51.90
21255;DHT22;10785;50.674;17.954;2023-05-10T09:20:17;18.80;52.10
21255;DHT22;10785;50.674;17.954;2023-05-10T09:22:47;18.80;51.90
21255;DHT22;10785;50.674;17.954;2023-05-10T09:25:17;18.90;53.70
21255;DHT22;10785;50.674;17.954;2023-05-10T09:27:47;19.10;53.40
21255;DHT22;10785;50.674;17.954;2023-05-10T09:30:17;19.10;53.30
21255;DHT22;10785;50.674;17.954;2023-05-10T09:32:47;19.20;53.40
21255;DHT22;10785;50.674;17.954;2023-05-10T09:35:18;19.20;52.80
21255;DHT22;10785;50.674;17.954;2023-05-10T09:37:50;19.20;53.00
21255;DHT22;10785;50.674;17.954;2023-05-10T09:40:21;18.70;49.40
21255;DHT22;10785;50.674;17.954;2023-05-10T09:42:52;19.00;51.90
21255;DHT22;10785;50.674;17.954;2023-05-10T09:45:22;19.30;53.70
21255;DHT22;10785;50.674;17.954;2023-05-10T09:47:51;19.00;50.80
21255;DHT22;10785;50.674;17.954;2023-05-10T09:50:20;19.10;50.90
21255;DHT22;10785;50.674;17.954;2023-05-10T09:52:51;19.00;50.90
21255;DHT22;10785;50.674;17.954;2023-05-10T09:55:22;18.80;49.40
21255;DHT22;10785;50.674;17.954;2023-05-10T09:57:59;18.70;48.40
21255;DHT22;10785;50.674;17.954;2023-05-10T10:00:33;19.00;50.50
21255;DHT22;10785;50.674;17.954;2023-05-10T10:03:03;19.20;51.50
21255;DHT22;10785;50.674;17.954;2023-05-10T10:05:33;19.50;52.30
21255;DHT22;10785;50.674;17.954;2023-05-10T10:08:04;19.50;52.60
21255;DHT22;10785;50.674;17.954;2023-05-10T10:10:33;19.40;51.90
21255;DHT22;10785;50.674;17.954;2023-05-10T10:13:02;19.30;50.60
21255;DHT22;10785;50.674;17.954;2023-05-10T10:15:33;19.40;50.50
21255;DHT22;10785;50.674;17.954;2023-05-10T10:18:02;19.20;48.60
21255;DHT22;10785;50.674;17.954;2023-05-10T10:20:31;19.20;49.40
21255;DHT22;10785;50.674;17.954;2023-05-10T10:23:00;19.30;49.40
21255;DHT22;10785;50.674;17.954;2023-05-10T10:25:30;19.50;50.50
21255;DHT22;10785;50.674;17.954;2023-05-10T10:28:13;19.20;47.90
21255;DHT22;10785;50.674;17.954;2023-05-10T10:30:48;19.10;46.90
21255;DHT22;10785;50.674;17.954;2023-05-10T10:33:33;19.30;48.20
21255;DHT22;10785;50.674;17.954;2023-05-10T10:36:05;19.60;50.30
21255;DHT22;10785;50.674;17.954;2023-05-10T10:41:31;20.10;51.00
21255;DHT22;10785;50.674;17.954;2023-05-10T10:44:23;20.10;51.10
21255;DHT22;10785;50.674;17.954;2023-05-10T10:50:06;20.10;49.80
21255;DHT22;10785;50.674;17.954;2023-05-10T10:52:36;20.20;51.50
21255;DHT22;10785;50.674;17.954;2023-05-10T10:55:06;20.40;50.70
21255;DHT22;10785;50.674;17.954;2023-05-10T10:57:48;20.20;48.90
21255;DHT22;10785;50.674;17.954;2023-05-10T11:00:28;19.80;46.10
21255;DHT22;10785;50.674;17.954;2023-05-10T11:02:59;19.80;45.70
21255;DHT22;10785;50.674;17.954;2023-05-10T11:05:40;19.60;44.90
21255;DHT22;10785;50.674;17.954;2023-05-10T11:08:12;19.70;45.20
21255;DHT22;10785;50.674;17.954;2023-05-10T11:10:53;19.70;44.70
21255;DHT22;10785;50.674;17.954;2023-05-10T11:13:31;19.50;43.20
21255;DHT22;10785;50.674;17.954;2023-05-10T11:16:11;19.60;43.20
21255;DHT22;10785;50.674;17.954;2023-05-10T11:18:40;20.10;45.90
21255;DHT22;10785;50.674;17.954;2023-05-10T11:21:09;20.60;49.40
21255;DHT22;10785;50.674;17.954;2023-05-10T11:23:50;20.60;49.00
21255;DHT22;10785;50.674;17.954;2023-05-10T11:26:19;20.60;48.50
21255;DHT22;10785;50.674;17.954;2023-05-10T11:28:53;20.10;46.00
21255;DHT22;10785;50.674;17.954;2023-05-10T11:31:24;20.10;45.00
21255;DHT22;10785;50.674;17.954;2023-05-10T11:33:55;19.90;43.20
21255;DHT22;10785;50.674;17.954;2023-05-10T11:36:25;19.90;43.00
21255;DHT22;10785;50.674;17.954;2023-05-10T11:38:55;19.80;42.20
21255;DHT22;10785;50.674;17.954;2023-05-10T11:41:24;19.60;40.90
21255;DHT22;10785;50.674;17.954;2023-05-10T11:43:59;19.70;40.60
21255;DHT22;10785;50.674;17.954;2023-05-10T11:46:28;19.70;40.50
21255;DHT22;10785;50.674;17.954;2023-05-10T11:48:59;19.60;39.30
21255;DHT22;10785;50.674;17.954;2023-05-10T11:51:34;19.40;38.00
21255;DHT22;10785;50.674;17.954;2023-05-10T11:54:06;19.40;37.60
21255;DHT22;10785;50.674;17.954;2023-05-10T11:56:36;19.30;36.90
21255;DHT22;10785;50.674;17.954;2023-05-10T11:59:07;19.20;36.60
21255;DHT22;10785;50.674;17.954;2023-05-10T12:01:36;19.20;35.80
21255;DHT22;10785;50.674;17.954;2023-05-10T12:04:05;19.40;36.80
21255;DHT22;10785;50.674;17.954;2023-05-10T12:06:40;19.50;36.80
21255;DHT22;10785;50.674;17.954;2023-05-10T12:09:09;19.60;37.20
21255;DHT22;10785;50.674;17.954;2023-05-10T12:11:39;19.60;36.40
21255;DHT22;10785;50.674;17.954;2023-05-10T12:14:12;19.70;38.00
21255;DHT22;10785;50.674;17.954;2023-05-10T12:16:43;20.00;39.70
21255;DHT22;10785;50.674;17.954;2023-05-10T12:19:12;20.20;39.30
21255;DHT22;10785;50.674;17.954;2023-05-10T12:21:41;20.30;40.20
21255;DHT22;10785;50.674;17.954;2023-05-10T12:24:09;20.20;38.70
21255;DHT22;10785;50.674;17.954;2023-05-10T12:26:39;20.10;37.30
21255;DHT22;10785;50.674;17.954;2023-05-10T12:29:30;19.80;36.00
21255;DHT22;10785;50.674;17.954;2023-05-10T12:31:59;19.70;34.60
21255;DHT22;10785;50.674;17.954;2023-05-10T12:34:31;19.80;34.90
21255;DHT22;10785;50.674;17.954;2023-05-10T12:37:00;20.00;35.50
21255;DHT22;10785;50.674;17.954;2023-05-10T12:39:39;20.30;37.40
21255;DHT22;10785;50.674;17.954;2023-05-10T12:42:09;20.80;40.20
21255;DHT22;10785;50.674;17.954;2023-05-10T12:44:39;21.00;40.90
21255;DHT22;10785;50.674;17.954;2023-05-10T12:47:08;20.80;39.00
21255;DHT22;10785;50.674;17.954;2023-05-10T12:49:36;20.70;38.50
21255;DHT22;10785;50.674;17.954;2023-05-10T12:52:05;20.50;36.60
21255;DHT22;10785;50.674;17.954;2023-05-10T12:54:34;20.40;35.20
21255;DHT22;10785;50.674;17.954;2023-05-10T12:57:03;20.40;35.20
21255;DHT22;10785;50.674;17.954;2023-05-10T12:59:32;20.30;34.30
21255;DHT22;10785;50.674;17.954;2023-05-10T13:02:06;19.90;31.20
21255;DHT22;10785;50.674;17.954;2023-05-10T13:04:35;19.90;31.20
21255;DHT22;10785;50.674;17.954;2023-05-10T13:07:06;19.90;30.30
21255;DHT22;10785;50.674;17.954;2023-05-10T13:09:35;19.90;30.50
21255;DHT22;10785;50.674;17.954;2023-05-10T13:12:05;20.00;30.20
21255;DHT22;10785;50.674;17.954;2023-05-10T13:14:40;19.90;29.50
21255;DHT22;10785;50.674;17.954;2023-05-10T13:17:11;19.90;45.00
21255;DHT22;10785;50.674;17.954;2023-05-10T13:19:40;19.90;28.90
21255;DHT22;10785;50.674;17.954;2023-05-10T13:22:08;19.80;29.40
21255;DHT22;10785;50.674;17.954;2023-05-10T13:24:37;19.90;28.80
21255;DHT22;10785;50.674;17.954;2023-05-10T13:27:06;19.90;29.00
21255;DHT22;10785;50.674;17.954;2023-05-10T13:29:35;19.80;28.20
21255;DHT22;10785;50.674;17.954;2023-05-10T13:32:04;19.90;28.80
21255;DHT22;10785;50.674;17.954;2023-05-10T13:34:35;19.80;27.50
21255;DHT22;10785;50.674;17.954;2023-05-10T13:37:04;19.80;27.30
21255;DHT22;10785;50.674;17.954;2023-05-10T13:39:33;19.90;28.00
21255;DHT22;10785;50.674;17.954;2023-05-10T13:42:04;20.00;28.20
21255;DHT22;10785;50.674;17.954;2023-05-10T13:44:34;19.80;26.50
21255;DHT22;10785;50.674;17.954;2023-05-10T13:47:03;19.70;26.20
21255;DHT22;10785;50.674;17.954;2023-05-10T13:49:32;19.60;25.90
21255;DHT22;10785;50.674;17.954;2023-05-10T13:52:15;19.70;26.10
21255;DHT22;10785;50.674;17.954;2023-05-10T13:54:45;19.90;27.30
21255;DHT22;10785;50.674;17.954;2023-05-10T13:57:14;20.10;26.90
21255;DHT22;10785;50.674;17.954;2023-05-10T13:59:44;20.20;28.10
21255;DHT22;10785;50.674;17.954;2023-05-10T14:02:13;20.30;28.50
21255;DHT22;10785;50.674;17.954;2023-05-10T14:04:43;20.30;27.60
21255;DHT22;10785;50.674;17.954;2023-05-10T14:07:11;20.20;27.00
21255;DHT22;10785;50.674;17.954;2023-05-10T14:09:42;20.20;27.30
21255;DHT22;10785;50.674;17.954;2023-05-10T14:12:11;20.20;27.10
21255;DHT22;10785;50.674;17.954;2023-05-10T14:14:39;20.20;26.30
21255;DHT22;10785;50.674;17.954;2023-05-10T14:17:08;20.20;26.20
21255;DHT22;10785;50.674;17.954;2023-05-10T14:19:38;20.00;24.40
21255;DHT22;10785;50.674;17.954;2023-05-10T14:22:07;19.90;24.30
21255;DHT22;10785;50.674;17.954;2023-05-10T14:24:37;19.90;23.80
21255;DHT22;10785;50.674;17.954;2023-05-10T14:27:07;20.00;24.30
21255;DHT22;10785;50.674;17.954;2023-05-10T14:29:36;20.10;24.10
21255;DHT22;10785;50.674;17.954;2023-05-10T14:32:05;20.00;23.70
21255;DHT22;10785;50.674;17.954;2023-05-10T14:34:34;20.00;23.80
21255;DHT22;10785;50.674;17.954;2023-05-10T14:37:03;20.10;23.50
21255;DHT22;10785;50.674;17.954;2023-05-10T14:39:32;20.10;23.20
21255;DHT22;10785;50.674;17.954;2023-05-10T14:42:02;20.00;22.60
21255;DHT22;10785;50.674;17.954;2023-05-10T14:44:32;20.00;22.60
21255;DHT22;10785;50.674;17.954;2023-05-10T14:47:01;20.00;22.60
21255;DHT22;10785;50.674;17.954;2023-05-10T14:49:30;20.00;22.60
21255;DHT22;10785;50.674;17.954;2023-05-10T14:51:59;20.00;21.70
21255;DHT22;10785;50.674;17.954;2023-05-10T15:13:50;19.90;20.50
21255;DHT22;10785;50.674;17.954;2023-05-10T15:16:21;19.90;20.00
21255;DHT22;10785;50.674;17.954;2023-05-10T15:18:50;19.80;19.10
21255;DHT22;10785;50.674;17.954;2023-05-10T15:21:20;19.80;19.00
21255;DHT22;10785;50.674;17.954;2023-05-10T15:24:14;19.90;19.20
21255;DHT22;10785;50.674;17.954;2023-05-10T15:26:43;19.90;19.20
21255;DHT22;10785;50.674;17.954;2023-05-10T15:29:13;19.90;18.70
21255;DHT22;10785;50.674;17.954;2023-05-10T15:31:47;19.80;18.70
21255;DHT22;10785;50.674;17.954;2023-05-10T15:34:17;19.90;18.60
21255;DHT22;10785;50.674;17.954;2023-05-10T15:36:45;19.90;18.30
21255;DHT22;10785;50.674;17.954;2023-05-10T15:39:15;19.80;18.50
21255;DHT22;10785;50.674;17.954;2023-05-10T15:41:43;19.80;17.50
21255;DHT22;10785;50.674;17.954;2023-05-10T15:44:14;19.80;17.70
21255;DHT22;10785;50.674;17.954;2023-05-10T15:46:45;19.80;17.70
21255;DHT22;10785;50.674;17.954;2023-05-10T15:49:14;19.90;18.10
21255;DHT22;10785;50.674;17.954;2023-05-10T15:51:44;20.00;17.70
21255;DHT22;10785;50.674;17.954;2023-05-10T15:54:13;19.90;16.80
21255;DHT22;10785;50.674;17.954;2023-05-10T15:56:42;19.90;16.80
21255;DHT22;10785;50.674;17.954;2023-05-10T15:59:15;19.90;16.80
21255;DHT22;10785;50.674;17.954;2023-05-10T16:01:44;19.90;16.50
21255;DHT22;10785;50.674;17.954;2023-05-10T16:04:13;19.80;16.20
21255;DHT22;10785;50.674;17.954;2023-05-10T16:06:41;19.80;16.50
21255;DHT22;10785;50.674;17.954;2023-05-10T16:09:10;19.80;15.90
21255;DHT22;10785;50.674;17.954;2023-05-10T16:11:41;19.80;15.50
21255;DHT22;10785;50.674;17.954;2023-05-10T16:14:10;19.90;15.60
21255;DHT22;10785;50.674;17.954;2023-05-10T16:16:41;19.90;15.50
21255;DHT22;10785;50.674;17.954;2023-05-10T16:19:11;19.90;15.20
21255;DHT22;10785;50.674;17.954;2023-05-10T16:21:40;19.80;14.60
21255;DHT22;10785;50.674;17.954;2023-05-10T16:24:08;19.80;14.10
21255;DHT22;10785;50.674;17.954;2023-05-10T16:26:37;19.80;14.40
21255;DHT22;10785;50.674;17.954;2023-05-10T16:29:08;19.80;14.50
21255;DHT22;10785;50.674;17.954;2023-05-10T16:31:38;19.90;14.20
21255;DHT22;10785;50.674;17.954;2023-05-10T16:34:08;20.00;14.70
21255;DHT22;10785;50.674;17.954;2023-05-10T16:36:38;20.00;26.30
21255;DHT22;10785;50.674;17.954;2023-05-10T16:39:07;19.90;14.00
21255;DHT22;10785;50.674;17.954;2023-05-10T16:41:36;19.90;13.40
21255;DHT22;10785;50.674;17.954;2023-05-10T16:44:05;19.80;12.60
21255;DHT22;10785;50.674;17.954;2023-05-10T16:46:36;19.70;24.60
21255;DHT22;10785;50.674;17.954;2023-05-10T16:49:07;19.60;11.20
21255;DHT22;10785;50.674;17.954;2023-05-10T16:51:38;19.40;10.60
21255;DHT22;10785;50.674;17.954;2023-05-10T16:54:08;19.40;10.00
21255;DHT22;10785;50.674;17.954;2023-05-10T16:56:37;19.40;10.50
21255;DHT22;10785;50.674;17.954;2023-05-10T16:59:06;19.30;9.50
21255;DHT22;10785;50.674;17.954;2023-05-10T17:01:35;19.30;9.70
21255;DHT22;10785;50.674;17.954;2023-05-10T17:04:04;19.20;9.00
21255;DHT22;10785;50.674;17.954;2023-05-10T17:06:36;19.10;8.20
21255;DHT22;10785;50.674;17.954;2023-05-10T17:09:07;19.00;8.40
21255;DHT22;10785;50.674;17.954;2023-05-10T17:11:37;18.90;8.10
21255;DHT22;10785;50.674;17.954;2023-05-10T17:14:06;18.90;7.70
21255;DHT22;10785;50.674;17.954;2023-05-10T17:16:37;18.80;7.10
21255;DHT22;10785;50.674;17.954;2023-05-10T17:19:07;18.70;6.70
21255;DHT22;10785;50.674;17.954;2023-05-10T17:21:37;18.70;6.40
21255;DHT22;10785;50.674;17.954;2023-05-10T17:24:07;18.60;6.60
21255;DHT22;10785;50.674;17.954;2023-05-10T17:26:37;18.60;6.00
21255;DHT22;10785;50.674;17.954;2023-05-10T17:29:05;18.60;6.30
21255;DHT22;10785;50.674;17.954;2023-05-10T17:31:35;18.60;6.00